Time;durP1;ratioP1;P1;durP2;ratioP2;P2;SDS_P1;SDS_P2;PMS_P1;PMS_P2;Temp;Humidity;BMP_temperature;BMP_pressure;BME280_temperature;BME280_humidity;BME280_pressure;Samples;Min_cycle;Max_cycle;Signal;HPM_P1;HPM_P2
2023/08/21 00:00:56;;;;;;;;;;;;;;;29.50;50.08;101231.25;5107296;28;20381;-82
2023/08/21 00:03:22;;;;;;;;;;;;;;;29.48;50.05;101217.81;5113658;28;19912;-82
2023/08/21 00:05:47;;;;;;;;;;;;;;;29.48;50.11;101223.19;5106775;28;19998;-82
2023/08/21 00:08:12;;;;;;;;;;;;;;;29.49;50.08;101232.19;5093212;28;20458;-81
2023/08/21 00:10:38;;;;;;;;;;;;;;;29.47;50.24;101226.81;5093114;28;19927;-82
2023/08/21 00:13:04;;;;;;;;;;;;;;;29.47;50.09;101225.94;5092912;28;19912;-82
2023/08/21 00:15:29;;;;;;;;;;;;;;;29.46;49.88;101219.63;5100621;28;19912;-82
2023/08/21 00:17:55;;;;;;;;;;;;;;;29.44;50.03;101226.84;5098661;28;20061;-81
2023/08/21 00:20:20;;;;;;;;;;;;;;;29.46;49.75;101226.84;5100388;28;20296;-81
2023/08/21 00:22:46;;;;;;;;;;;;;;;29.46;49.65;101218.75;5098702;28;20372;-82
2023/08/21 00:25:11;;;;;;;;;;;;;;;29.47;49.68;101212.47;5097580;28;19927;-81
2023/08/21 00:27:37;;;;;;;;;;;;;;;29.47;49.71;101212.47;5092627;28;20389;-81
2023/08/21 00:30:03;;;;;;;;;;;;;;;29.45;50.07;101217.00;5093162;28;20404;-81
2023/08/21 00:32:28;;;;;;;;;;;;;;;29.43;49.78;101217.91;5097959;28;20316;-81
2023/08/21 00:34:53;;;;;;;;;;;;;;;29.43;49.75;101209.81;5111643;28;19916;-81
2023/08/21 00:37:19;;;;;;;;;;;;;;;29.45;49.59;101217.00;5110623;28;20381;-81
2023/08/21 00:39:45;;;;;;;;;;;;;;;29.41;49.71;101214.34;5100025;28;20453;-81
2023/08/21 00:42:10;;;;;;;;;;;;;;;29.43;49.56;101211.63;5108488;28;20436;-82
2023/08/21 00:44:35;;;;;;;;;;;;;;;29.42;49.56;101210.75;5099658;28;20444;-82
2023/08/21 00:47:01;;;;;;;;;;;;;;;29.42;49.82;101210.75;5105090;28;19911;-81
2023/08/21 00:49:26;;;;;;;;;;;;;;;29.41;49.61;101217.03;5097443;28;19916;-81
2023/08/21 00:51:52;;;;;;;;;;;;;;;29.40;49.75;101214.34;5097433;28;20381;-81
2023/08/21 00:54:17;;;;;;;;;;;;;;;29.42;49.71;101209.84;5091588;28;19958;-80
2023/08/21 00:56:43;;;;;;;;;;;;;;;29.41;49.59;101216.16;5104671;28;20308;-80
2023/08/21 00:59:09;;;;;;;;;;;;;;;29.39;49.43;101215.28;5096040;27;20345;-81
2023/08/21 01:01:34;;;;;;;;;;;;;;;29.40;49.70;101215.28;5104007;28;20499;-81
2023/08/21 01:03:59;;;;;;;;;;;;;;;29.40;49.44;101209.88;5106925;28;19916;-81
2023/08/21 01:06:25;;;;;;;;;;;;;;;29.41;49.45;101213.47;5090418;28;19983;-82
2023/08/21 01:09:15;;;;;;;;;;;;;;;29.39;49.35;101218.84;5105427;28;19919;-82
2023/08/21 01:12:07;;;;;;;;;;;;;;;29.39;49.47;101215.28;5092150;28;19911;-81
2023/08/21 01:14:42;;;;;;;;;;;;;;;29.39;49.52;101212.59;5100932;27;19915;-81
2023/08/21 01:17:07;;;;;;;;;;;;;;;29.39;49.22;101209.91;5094217;28;19919;-81
2023/08/21 01:19:36;;;;;;;;;;;;;;;29.38;49.33;101216.19;5103576;28;19916;-82
2023/08/21 01:22:02;;;;;;;;;;;;;;;29.37;49.72;101206.34;5099324;28;19912;-81
2023/08/21 01:24:27;;;;;;;;;;;;;;;29.37;49.20;101209.03;5109838;28;19973;-82
2023/08/21 01:26:53;;;;;;;;;;;;;;;29.36;49.40;101209.97;5102358;28;19912;-82
2023/08/21 01:29:18;;;;;;;;;;;;;;;29.36;48.88;101213.53;5092607;28;20396;-81
2023/08/21 01:31:45;;;;;;;;;;;;;;;29.35;49.18;101217.13;5096709;28;19919;-81
2023/08/21 01:34:11;;;;;;;;;;;;;;;29.33;49.02;101216.28;5096825;28;19919;-80
2023/08/21 01:36:36;;;;;;;;;;;;;;;29.33;49.01;101210.00;5091563;28;19923;-81
2023/08/21 01:39:03;;;;;;;;;;;;;;;29.34;49.05;101215.38;5108041;28;19912;-81
2023/08/21 01:41:28;;;;;;;;;;;;;;;29.35;49.13;101208.19;5106722;28;19961;-81
2023/08/21 01:43:54;;;;;;;;;;;;;;;29.34;49.22;101215.38;5097606;28;19967;-81
2023/08/21 01:46:19;;;;;;;;;;;;;;;29.33;49.00;101218.97;5101940;28;20014;-81
2023/08/21 01:48:45;;;;;;;;;;;;;;;29.32;48.91;101219.00;5096787;28;20393;-81
2023/08/21 01:51:10;;;;;;;;;;;;;;;29.32;48.81;101216.31;5109307;28;19919;-81
2023/08/21 01:53:35;;;;;;;;;;;;;;;29.31;48.93;101227.97;5098724;28;19966;-81
2023/08/21 01:56:01;;;;;;;;;;;;;;;29.32;49.14;101227.09;5105152;28;20393;-82
2023/08/21 01:58:26;;;;;;;;;;;;;;;29.32;48.92;101222.59;5108785;28;19972;-82
2023/08/21 02:00:52;;;;;;;;;;;;;;;29.33;48.98;101213.56;5100242;28;19916;-81
2023/08/21 02:03:17;;;;;;;;;;;;;;;29.31;49.09;101211.84;5112058;28;19912;-82
2023/08/21 02:05:43;;;;;;;;;;;;;;;29.32;49.07;101224.38;5102653;27;19916;-81
2023/08/21 02:08:10;;;;;;;;;;;;;;;29.31;48.85;101219.91;5098239;28;20381;-81
2023/08/21 02:10:35;;;;;;;;;;;;;;;29.30;48.89;101218.16;5098437;28;19923;-81
2023/08/21 02:13:00;;;;;;;;;;;;;;;29.28;48.72;101220.84;5102077;28;19912;-81
2023/08/21 02:15:26;;;;;;;;;;;;;;;29.28;48.91;101215.47;5103788;28;20385;-81
2023/08/21 02:17:51;;;;;;;;;;;;;;;29.27;48.89;101216.38;5095600;28;20282;-80
2023/08/21 02:20:17;;;;;;;;;;;;;;;29.28;48.53;101210.09;5108828;28;20407;-81
2023/08/21 02:22:42;;;;;;;;;;;;;;;29.28;48.65;101207.41;5094603;28;20385;-81
2023/08/21 02:25:07;;;;;;;;;;;;;;;29.27;48.72;101212.78;5095422;28;19920;-81
2023/08/21 02:27:33;;;;;;;;;;;;;;;29.26;48.69;101209.22;5108761;28;19922;-80
2023/08/21 02:29:58;;;;;;;;;;;;;;;29.25;48.62;101210.13;5094914;28;20381;-81
2023/08/21 02:32:24;;;;;;;;;;;;;;;29.25;48.58;101215.50;5095929;28;20439;-81
2023/08/21 02:34:49;;;;;;;;;;;;;;;29.23;48.56;101212.88;5098984;28;19912;-82
2023/08/21 02:37:15;;;;;;;;;;;;;;;29.23;48.70;101207.47;5109489;28;20445;-81
2023/08/21 02:39:40;;;;;;;;;;;;;;;29.25;48.70;101211.94;5102221;28;20407;-81
2023/08/21 02:42:05;;;;;;;;;;;;;;;29.25;48.48;101211.94;5115820;27;19926;-81
2023/08/21 02:44:31;;;;;;;;;;;;;;;29.22;48.32;101207.50;5133840;27;20308;-81
2023/08/21 02:46:56;;;;;;;;;;;;;;;29.25;48.64;101206.56;5131339;27;20312;-81
2023/08/21 02:49:22;;;;;;;;;;;;;;;29.23;48.69;101211.94;5123183;27;19916;-81
2023/08/21 02:51:47;;;;;;;;;;;;;;;29.21;48.61;101206.63;5129835;27;19915;-81
2023/08/21 02:54:12;;;;;;;;;;;;;;;29.21;48.46;101208.41;5116367;27;19957;-81
2023/08/21 02:56:38;;;;;;;;;;;;;;;29.22;48.52;101215.56;5127034;27;20019;-82
2023/08/21 02:59:03;;;;;;;;;;;;;;;29.21;48.46;101214.69;5111365;28;20339;-81
2023/08/21 03:01:29;;;;;;;;;;;;;;;29.22;48.43;101210.19;5126210;27;19922;-82
2023/08/21 03:03:54;;;;;;;;;;;;;;;29.19;48.42;101211.13;5126872;27;20444;-82
2023/08/21 03:06:20;;;;;;;;;;;;;;;29.21;48.28;101211.09;5121469;27;20286;-82
2023/08/21 03:08:46;;;;;;;;;;;;;;;29.17;48.67;101212.97;5128621;27;19955;-82
2023/08/21 03:11:11;;;;;;;;;;;;;;;29.18;48.58;101214.72;5122230;27;19961;-82
2023/08/21 03:13:36;;;;;;;;;;;;;;;29.17;48.21;101215.66;5132889;27;19916;-82
2023/08/21 03:16:02;;;;;;;;;;;;;;;29.17;48.38;101212.97;5131558;27;20380;-82
2023/08/21 03:18:30;;;;;;;;;;;;;;;29.16;48.14;101218.34;5127964;27;20415;-82
2023/08/21 03:20:56;;;;;;;;;;;;;;;29.16;48.35;101219.22;5126778;27;19916;-83
2023/08/21 03:23:21;;;;;;;;;;;;;;;29.18;48.04;101221.91;5126990;27;19919;-82
2023/08/21 03:25:47;;;;;;;;;;;;;;;29.17;48.02;101223.72;5128838;27;20414;-83
2023/08/21 03:28:12;;;;;;;;;;;;;;;29.16;48.14;101226.41;5125281;27;19916;-81
2023/08/21 03:30:39;;;;;;;;;;;;;;;29.15;47.81;101221.97;5125617;27;20411;-81
2023/08/21 03:33:05;;;;;;;;;;;;;;;29.13;48.14;101226.47;5104624;27;19915;-81
2023/08/21 03:35:30;;;;;;;;;;;;;;;29.15;48.11;101224.66;5121396;27;19912;-81
2023/08/21 03:37:56;;;;;;;;;;;;;;;29.13;48.32;101219.28;5124739;27;19922;-83
2023/08/21 03:40:21;;;;;;;;;;;;;;;29.14;48.62;101217.50;5130088;27;20419;-82
2023/08/21 03:42:47;;;;;;;;;;;;;;;29.14;48.71;101218.38;5110469;27;20302;-82
2023/08/21 03:45:12;;;;;;;;;;;;;;;29.16;48.77;101221.03;5094215;28;20381;-80
2023/08/21 03:47:38;;;;;;;;;;;;;;;29.15;48.49;101219.28;5105763;28;19920;-81
2023/08/21 03:50:03;;;;;;;;;;;;;;;29.14;48.51;101222.88;5099028;28;20399;-81
2023/08/21 03:52:28;;;;;;;;;;;;;;;29.12;48.52;101228.25;5099903;28;20015;-81
2023/08/21 03:54:54;;;;;;;;;;;;;;;29.13;48.24;101226.47;5106321;28;19965;-82
2023/08/21 03:57:19;;;;;;;;;;;;;;;29.13;48.17;101223.78;5112125;28;20423;-81
2023/08/21 03:59:45;;;;;;;;;;;;;;;29.11;48.30;101226.50;5109415;28;20305;-82
2023/08/21 04:02:10;;;;;;;;;;;;;;;29.09;48.65;101233.66;5108244;28;19919;-81
2023/08/21 04:04:36;;;;;;;;;;;;;;;29.10;48.81;101227.41;5110821;28;19966;-80
2023/08/21 04:07:01;;;;;;;;;;;;;;;29.12;48.61;101243.50;5099350;28;20014;-81
2023/08/21 04:09:26;;;;;;;;;;;;;;;29.11;48.76;101236.38;5113093;28;19915;-81
2023/08/21 04:11:52;;;;;;;;;;;;;;;29.12;48.46;101239.00;5113369;28;20365;-81
2023/08/21 04:14:17;;;;;;;;;;;;;;;29.09;48.85;101241.75;5113025;28;20457;-82
2023/08/21 04:16:43;;;;;;;;;;;;;;;29.10;48.89;101251.59;5100143;28;19916;-81
2023/08/21 04:19:08;;;;;;;;;;;;;;;29.11;48.83;101247.13;5098930;28;19927;-80
2023/08/21 04:21:33;;;;;;;;;;;;;;;29.11;49.11;101249.81;5108615;28;19967;-79
2023/08/21 04:23:59;;;;;;;;;;;;;;;29.11;49.03;101241.75;5106619;28;19927;-80
2023/08/21 04:26:24;;;;;;;;;;;;;;;29.10;48.95;101246.22;5105278;28;19916;-79
2023/08/21 04:28:50;;;;;;;;;;;;;;;29.11;48.89;101239.94;5110089;28;19915;-81
2023/08/21 04:31:15;;;;;;;;;;;;;;;29.10;48.79;101248.91;5104153;28;20377;-81
2023/08/21 04:33:41;;;;;;;;;;;;;;;29.09;48.96;101244.44;5110269;28;20010;-80
2023/08/21 04:36:06;;;;;;;;;;;;;;;29.09;48.84;101252.50;5108863;28;19964;-81
2023/08/21 04:38:31;;;;;;;;;;;;;;;29.09;48.73;101248.91;5098899;28;19938;-82
2023/08/21 04:41:05;;;;;;;;;;;;;;;29.08;48.63;101249.81;5102816;28;19922;-82
2023/08/21 04:43:30;;;;;;;;;;;;;;;29.08;48.39;101255.19;5116280;27;19920;-82
2023/08/21 04:45:56;;;;;;;;;;;;;;;29.06;48.53;101249.84;5120176;27;19920;-81
2023/08/21 04:48:22;;;;;;;;;;;;;;;29.02;48.56;101249.00;5115525;27;20304;-84
2023/08/21 04:50:47;;;;;;;;;;;;;;;29.06;48.57;101251.63;5124709;27;19962;-82
2023/08/21 04:53:13;;;;;;;;;;;;;;;29.05;48.50;101247.19;5131272;27;19915;-82
2023/08/21 04:55:40;;;;;;;;;;;;;;;29.06;48.60;101248.94;5119299;27;20416;-81
2023/08/21 04:58:06;;;;;;;;;;;;;;;29.04;48.83;101248.97;5123939;27;19960;-83
2023/08/21 05:00:31;;;;;;;;;;;;;;;29.03;48.93;101247.19;5127204;27;19915;-82
2023/08/21 05:02:57;;;;;;;;;;;;;;;29.03;49.26;101253.47;5126253;27;19916;-83
2023/08/21 05:05:22;;;;;;;;;;;;;;;29.02;49.61;101250.81;5122592;27;19923;-81
2023/08/21 05:07:48;;;;;;;;;;;;;;;29.03;49.54;101252.59;5121896;27;20492;-85
2023/08/21 05:10:13;;;;;;;;;;;;;;;28.98;46.94;101252.66;5121002;27;19923;-81
2023/08/21 05:12:39;;;;;;;;;;;;;;;29.00;46.26;101252.66;5112621;27;20380;-81
2023/08/21 05:15:04;;;;;;;;;;;;;;;28.89;46.85;101249.19;5130687;27;19938;-82
2023/08/21 05:17:30;;;;;;;;;;;;;;;28.99;47.17;101253.53;5129383;27;20006;-87
2023/08/21 05:19:56;;;;;;;;;;;;;;;28.93;48.72;101256.31;5121529;27;19994;-83
2023/08/21 05:22:22;;;;;;;;;;;;;;;28.91;48.57;101253.63;5114165;27;19916;-85
2023/08/21 05:24:48;;;;;;;;;;;;;;;28.92;48.44;101251.84;5130754;27;19911;-83
2023/08/21 05:27:14;;;;;;;;;;;;;;;29.06;47.76;101263.28;5117935;27;19987;-84
2023/08/21 05:29:39;;;;;;;;;;;;;;;29.04;47.80;101259.72;5112104;28;20384;-84
2023/08/21 05:32:05;;;;;;;;;;;;;;;29.12;47.00;101257.84;5112183;27;20376;-84
2023/08/21 05:34:30;;;;;;;;;;;;;;;29.10;46.94;101262.34;5116366;27;20377;-84
2023/08/21 05:36:56;;;;;;;;;;;;;;;29.25;46.84;101269.31;5112706;28;19922;-84
2023/08/21 05:39:21;;;;;;;;;;;;;;;29.43;46.09;101266.31;5093863;28;19912;-83
2023/08/21 05:41:46;;;;;;;;;;;;;;;29.42;45.89;101269.03;5110678;28;19912;-83
2023/08/21 05:44:12;;;;;;;;;;;;;;;29.38;45.99;101270.91;5135274;27;19927;-84
2023/08/21 05:46:38;;;;;;;;;;;;;;;29.57;45.80;101274.19;5142049;27;19911;-85
2023/08/21 05:49:03;;;;;;;;;;;;;;;29.63;45.44;101278.56;5121211;27;20377;-85
2023/08/21 05:51:29;;;;;;;;;;;;;;;29.55;45.43;101267.94;5125188;28;19912;-83
2023/08/21 05:53:54;;;;;;;;;;;;;;;29.59;45.51;101266.97;5110380;28;20007;-83
2023/08/21 05:56:20;;;;;;;;;;;;;;;29.62;45.33;101257.97;5112243;28;19916;-84
2023/08/21 05:58:45;;;;;;;;;;;;;;;29.68;45.17;101262.34;5096551;28;20317;-86
2023/08/21 06:01:11;;;;;;;;;;;;;;;29.64;45.22;101269.59;5125779;28;19923;-87
2023/08/21 06:03:37;;;;;;;;;;;;;;;29.60;45.10;101268.75;5121972;27;20656;-86
2023/08/21 06:06:03;;;;;;;;;;;;;;;29.73;44.85;101277.53;5122125;27;19922;-87
2023/08/21 06:08:28;;;;;;;;;;;;;;;29.78;44.66;101275.66;5137180;27;19911;-84
2023/08/21 06:10:54;;;;;;;;;;;;;;;29.80;44.81;101281.00;5127355;28;19915;-84
2023/08/21 06:13:19;;;;;;;;;;;;;;;29.71;44.75;101279.34;5123195;28;20376;-86
2023/08/21 06:15:45;;;;;;;;;;;;;;;29.66;44.81;101278.53;5115309;27;19961;-84
2023/08/21 06:18:10;;;;;;;;;;;;;;;29.70;44.70;101285.66;5142236;27;20987;-84
2023/08/21 06:20:36;;;;;;;;;;;;;;;29.72;44.63;101289.22;5123161;28;19934;-85
2023/08/21 06:23:01;;;;;;;;;;;;;;;29.78;44.54;101293.59;5125215;27;19957;-85
2023/08/21 06:25:27;;;;;;;;;;;;;;;29.84;44.34;101293.50;5119634;27;20389;-85
2023/08/21 06:27:52;;;;;;;;;;;;;;;29.86;44.23;101291.66;5128687;28;19923;-85
2023/08/21 06:30:18;;;;;;;;;;;;;;;29.79;44.39;101298.06;5133668;27;19961;-85
2023/08/21 06:32:43;;;;;;;;;;;;;;;29.71;44.25;101295.50;5103441;27;20021;-87
2023/08/21 06:35:10;;;;;;;;;;;;;;;29.78;44.32;101305.28;5135069;27;19916;-88
2023/08/21 06:37:35;;;;;;;;;;;;;;;29.60;44.10;101301.03;5124522;27;19927;-85
2023/08/21 06:40:01;;;;;;;;;;;;;;;29.58;44.63;101302.88;5135238;27;19911;-84
2023/08/21 06:42:30;;;;;;;;;;;;;;;29.71;44.14;101308.09;5087308;27;19926;-84
2023/08/21 06:44:55;;;;;;;;;;;;;;;29.78;43.98;101304.38;5114104;27;19927;-85
2023/08/21 06:47:22;;;;;;;;;;;;;;;29.83;43.86;101305.19;5097811;27;19920;-84
2023/08/21 06:52:40;;;;;;;;;;;;;;;29.79;44.08;101304.34;5099597;28;19950;-86
2023/08/21 06:55:06;;;;;;;;;;;;;;;29.69;44.17;101301.81;5097952;27;19958;-84
2023/08/21 06:57:32;;;;;;;;;;;;;;;29.73;44.01;101300.88;5107130;28;19912;-85
2023/08/21 07:00:07;;;;;;;;;;;;;;;29.81;43.71;101305.22;5098579;28;19919;-85
2023/08/21 07:02:32;;;;;;;;;;;;;;;29.74;43.93;101297.25;5079644;28;19919;-88
2023/08/21 07:04:58;;;;;;;;;;;;;;;29.78;43.90;101305.28;5096034;27;20312;-87
2023/08/21 07:07:24;;;;;;;;;;;;;;;29.74;43.88;101305.31;5112787;27;19915;-86
2023/08/21 07:09:50;;;;;;;;;;;;;;;29.73;43.99;101306.25;5098392;27;19919;-87
2023/08/21 07:12:16;;;;;;;;;;;;;;;29.92;43.27;101306.81;5102200;27;19922;-85
2023/08/21 07:14:42;;;;;;;;;;;;;;;29.94;43.35;101308.56;5100206;27;20006;-85
2023/08/21 07:17:15;;;;;;;;;;;;;;;29.88;43.48;101302.41;5088811;28;19976;-86
2023/08/21 07:19:55;;;;;;;;;;;;;;;29.91;43.35;101302.34;5110976;27;19998;-86
2023/08/21 07:22:22;;;;;;;;;;;;;;;29.87;43.35;101304.22;5111471;28;20380;-87
2023/08/21 07:24:53;;;;;;;;;;;;;;;29.92;43.31;101301.44;5099789;27;20015;-85
2023/08/21 07:27:19;;;;;;;;;;;;;;;29.96;43.11;101303.16;5117756;27;19926;-86
2023/08/21 07:29:47;;;;;;;;;;;;;;;29.96;43.32;101301.34;5120426;27;19912;-84
2023/08/21 07:32:13;;;;;;;;;;;;;;;29.89;43.44;101298.78;5095421;28;19938;-87
2023/08/21 07:34:42;;;;;;;;;;;;;;;29.98;43.18;101298.63;5095282;28;19915;-87
2023/08/21 07:37:13;;;;;;;;;;;;;;;29.98;43.16;101299.53;5125633;27;19912;-86
2023/08/21 07:39:39;;;;;;;;;;;;;;;30.02;42.97;101306.63;5084988;27;19911;-87
2023/08/21 07:42:08;;;;;;;;;;;;;;;30.19;42.70;101297.34;5096993;27;19928;-86
2023/08/21 07:44:36;;;;;;;;;;;;;;;30.04;42.87;101306.63;5102499;27;19920;-85
2023/08/21 07:47:02;;;;;;;;;;;;;;;30.04;42.86;101304.81;5097507;28;19969;-85
2023/08/21 07:49:34;;;;;;;;;;;;;;;30.05;42.93;101300.28;5108605;27;19911;-87
2023/08/21 07:52:00;;;;;;;;;;;;;;;29.95;43.14;101307.66;5101979;27;19920;-86
2023/08/21 07:54:26;;;;;;;;;;;;;;;29.98;42.98;101314.81;5104129;28;19923;-85
2023/08/21 07:56:52;;;;;;;;;;;;;;;29.99;42.98;101306.69;5124371;27;20308;-86
2023/08/21 07:59:19;;;;;;;;;;;;;;;30.13;42.65;101302.84;5094008;28;19911;-86
2023/08/21 08:01:45;;;;;;;;;;;;;;;30.13;42.72;101309.13;5120825;27;19923;-86
2023/08/21 08:04:11;;;;;;;;;;;;;;;30.08;42.90;101300.25;5094181;28;19920;-86
2023/08/21 08:06:36;;;;;;;;;;;;;;;30.03;42.79;101305.69;5106911;27;19912;-84
2023/08/21 08:09:03;;;;;;;;;;;;;;;30.04;42.74;101309.31;5114739;27;19911;-86
2023/08/21 08:11:29;;;;;;;;;;;;;;;30.20;42.64;101304.50;5114288;27;19911;-85
2023/08/21 08:13:55;;;;;;;;;;;;;;;30.27;42.18;101303.50;5120522;27;19911;-85
2023/08/21 08:16:21;;;;;;;;;;;;;;;30.23;42.50;101302.66;5110041;27;19911;-86
2023/08/21 08:18:49;;;;;;;;;;;;;;;30.26;42.49;101296.31;5096919;27;20345;-85
2023/08/21 08:21:15;;;;;;;;;;;;;;;30.35;42.01;101301.53;5099235;27;19911;-83
2023/08/21 08:23:43;;;;;;;;;;;;;;;30.47;41.79;101300.41;5121329;27;19959;-85
2023/08/21 08:26:08;;;;;;;;;;;;;;;30.43;42.00;101296.88;5106431;27;19912;-84
2023/08/21 08:28:34;;;;;;;;;;;;;;;30.35;41.85;101287.19;5112626;27;19918;-84
2023/08/21 08:31:00;;;;;;;;;;;;;;;30.31;42.13;101291.78;5112054;27;19911;-84
2023/08/21 08:33:25;;;;;;;;;;;;;;;30.37;42.05;101288.94;5094258;28;19911;-82
2023/08/21 08:35:51;;;;;;;;;;;;;;;30.43;41.97;101288.81;5119145;27;19971;-82
2023/08/21 08:38:16;;;;;;;;;;;;;;;30.37;42.11;101282.66;5134073;27;19915;-84
2023/08/21 08:40:45;;;;;;;;;;;;;;;30.38;42.10;101287.16;5115543;28;19911;-85
2023/08/21 08:43:12;;;;;;;;;;;;;;;30.37;42.07;101290.75;5117391;27;19924;-85
2023/08/21 08:45:50;;;;;;;;;;;;;;;30.40;41.97;101286.19;5105650;27;19926;-87
2023/08/21 08:48:20;;;;;;;;;;;;;;;30.36;41.86;101284.47;5084086;28;20378;-86
2023/08/21 08:50:45;;;;;;;;;;;;;;;30.47;41.68;101284.25;5079723;28;19920;-86
2023/08/21 08:53:17;;;;;;;;;;;;;;;30.43;41.89;101280.72;5080945;28;19920;-87
2023/08/21 08:55:43;;;;;;;;;;;;;;;30.47;41.70;101280.66;5069388;28;20309;-86
2023/08/21 08:58:09;;;;;;;;;;;;;;;30.42;41.67;101278.97;5084157;28;20308;-87
2023/08/21 09:00:35;;;;;;;;;;;;;;;30.46;41.84;101271.72;5078967;28;19912;-85
2023/08/21 09:03:03;;;;;;;;;;;;;;;30.60;41.41;101274.97;5116254;27;19912;-85
2023/08/21 09:05:29;;;;;;;;;;;;;;;30.49;41.84;101276.13;5077875;28;19922;-86
2023/08/21 09:08:11;;;;;;;;;;;;;;;30.52;41.72;101278.75;5072315;27;19912;-85
2023/08/21 09:10:39;;;;;;;;;;;;;;;30.58;41.54;101270.53;5076088;28;20428;-86
2023/08/21 09:13:24;;;;;;;;;;;;;;;30.59;41.54;101277.72;5081842;28;19912;-85
2023/08/21 09:16:16;;;;;;;;;;;;;;;30.72;41.41;101272.97;5090283;28;19912;-86
2023/08/21 09:19:02;;;;;;;;;;;;;;;30.46;42.06;101270.78;5092070;28;19912;-87
2023/08/21 09:21:28;;;;;;;;;;;;;;;30.42;41.79;101275.38;5107202;28;19965;-86
2023/08/21 09:24:09;;;;;;;;;;;;;;;30.66;41.52;101273.09;5092620;28;19956;-85
2023/08/21 09:26:35;;;;;;;;;;;;;;;30.65;41.61;101269.50;5074718;28;19922;-86
2023/08/21 09:29:02;;;;;;;;;;;;;;;30.59;41.63;101265.13;5075501;28;19935;-86
2023/08/21 09:31:41;;;;;;;;;;;;;;;30.73;41.30;101267.50;5090488;28;19912;-86
2023/08/21 09:34:07;;;;;;;;;;;;;;;30.70;41.37;101266.72;5075266;28;19931;-85
2023/08/21 09:36:32;;;;;;;;;;;;;;;30.71;41.30;101265.78;5099974;28;19916;-84
2023/08/21 09:38:58;;;;;;;;;;;;;;;30.67;41.41;101264.97;5079170;28;20002;-84
2023/08/21 09:41:28;;;;;;;;;;;;;;;30.78;41.28;101279.09;5101266;28;19962;-84
2023/08/21 09:44:15;;;;;;;;;;;;;;;;;;;;;
2023/08/21 09:46:42;;;;;;;;;;;;;;;30.75;41.20;101267.50;5133765;27;19915;-88
2023/08/21 09:49:08;;;;;;;;;;;;;;;30.82;41.17;101266.44;5100903;28;19912;-88
2023/08/21 09:51:34;;;;;;;;;;;;;;;30.81;41.06;101270.06;5096636;28;19965;-87
2023/08/21 09:54:03;;;;;;;;;;;;;;;30.76;41.38;101274.66;5076310;28;19918;-88
2023/08/21 09:56:29;;;;;;;;;;;;;;;30.88;41.05;101273.53;5103472;28;19911;-86
2023/08/21 09:58:55;;;;;;;;;;;;;;;30.84;41.11;101267.31;5097309;28;19912;-85
2023/08/21 10:01:24;;;;;;;;;;;;;;;30.94;41.01;101268.00;5114172;27;19937;-85
2023/08/21 10:03:50;;;;;;;;;;;;;;;30.89;41.28;101264.53;5109463;28;19970;-86
2023/08/21 10:06:17;;;;;;;;;;;;;;;30.92;41.23;101264.44;5117289;27;20330;-86
2023/08/21 10:08:43;;;;;;;;;;;;;;;31.01;41.03;101265.13;5106036;28;19918;-86
2023/08/21 10:11:14;;;;;;;;;;;;;;;30.89;41.14;101273.50;5095750;28;19915;-87
2023/08/21 10:13:43;;;;;;;;;;;;;;;30.93;41.08;101267.13;5092342;28;19916;-86
2023/08/21 10:16:11;;;;;;;;;;;;;;;31.05;40.90;101260.53;5100314;27;19915;-87
2023/08/21 10:18:52;;;;;;;;;;;;;;;30.88;41.17;101255.53;5097635;27;19919;-87
2023/08/21 10:21:26;;;;;;;;;;;;;;;31.04;40.84;101259.66;5108413;27;19915;-87
2023/08/21 10:23:54;;;;;;;;;;;;;;;30.98;41.04;101261.63;5094644;27;19947;-86
2023/08/21 10:26:20;;;;;;;;;;;;;;;31.14;40.83;101260.34;5113494;27;20693;-85
2023/08/21 10:29:02;;;;;;;;;;;;;;;31.01;41.03;101258.81;5132461;27;19921;-86
2023/08/21 10:31:39;;;;;;;;;;;;;;;30.99;41.09;101252.63;5085588;28;19916;-85
2023/08/21 10:34:09;;;;;;;;;;;;;;;31.03;41.13;101255.19;5085347;27;19915;-85
2023/08/21 10:36:41;;;;;;;;;;;;;;;31.00;41.08;101252.56;5112864;27;19915;-85
2023/08/21 10:39:24;;;;;;;;;;;;;;;30.96;41.34;101250.84;5114547;27;20350;-85
2023/08/21 10:42:04;;;;;;;;;;;;;;;31.09;40.88;101248.75;5112378;27;19916;-84
2023/08/21 10:44:37;;;;;;;;;;;;;;;31.03;41.06;101248.88;5109662;28;19954;-86
2023/08/21 10:47:17;;;;;;;;;;;;;;;31.13;40.95;101244.19;5089514;28;19915;-84
2023/08/21 10:49:46;;;;;;;;;;;;;;;31.17;40.92;101252.16;5100745;28;19969;-86
2023/08/21 10:52:12;;;;;;;;;;;;;;;31.12;41.13;101250.50;5091866;28;19939;-86
2023/08/21 10:54:58;;;;;;;;;;;;;;;31.14;41.08;101248.66;5074920;28;20385;-85
2023/08/21 10:57:28;;;;;;;;;;;;;;;31.11;41.25;101252.31;5100497;28;19912;-86
2023/08/21 10:59:53;;;;;;;;;;;;;;;31.14;41.06;101245.97;5108610;28;19912;-86
2023/08/21 11:02:22;;;;;;;;;;;;;;;31.26;40.89;101256.44;5118782;27;19923;-86
2023/08/21 11:04:48;;;;;;;;;;;;;;;31.21;41.15;101261.97;5091584;28;19923;-86
2023/08/21 11:07:16;;;;;;;;;;;;;;;31.15;41.30;101253.13;5100152;28;20002;-86
2023/08/21 11:09:42;;;;;;;;;;;;;;;31.27;41.13;101257.34;5074780;28;19912;-86
2023/08/21 11:12:11;;;;;;;;;;;;;;;31.23;41.39;101251.13;5121685;27;19912;-86
2023/08/21 11:14:37;;;;;;;;;;;;;;;31.23;41.28;101252.00;5091392;28;19916;-86
2023/08/21 11:17:03;;;;;;;;;;;;;;;31.31;41.14;101250.97;5120474;27;19943;-86
2023/08/21 11:19:34;;;;;;;;;;;;;;;31.31;41.07;101243.75;5106453;28;19916;-86
2023/08/21 11:22:04;;;;;;;;;;;;;;;31.38;41.14;101244.47;5096610;28;20317;-86
2023/08/21 11:24:33;;;;;;;;;;;;;;;31.40;41.18;101243.50;5091439;28;19920;-86
2023/08/21 11:26:59;;;;;;;;;;;;;;;31.41;40.96;101250.69;5111196;27;19948;-85
2023/08/21 11:29:25;;;;;;;;;;;;;;;31.33;41.19;101247.28;5090713;28;19945;-84
2023/08/21 11:31:52;;;;;;;;;;;;;;;31.31;41.22;101243.75;5091524;28;19919;-86
2023/08/21 11:34:21;;;;;;;;;;;;;;;31.32;41.63;101244.63;5092445;28;19916;-84
2023/08/21 11:36:47;;;;;;;;;;;;;;;31.40;41.21;101240.81;5110851;28;19915;-84
2023/08/21 11:39:13;;;;;;;;;;;;;;;31.32;41.57;101250.91;5097213;28;19935;-84
2023/08/21 11:41:57;;;;;;;;;;;;;;;31.45;41.23;101246.13;5091388;28;20010;-84
2023/08/21 11:44:22;;;;;;;;;;;;;;;31.42;41.04;101244.34;5074474;28;19994;-84
2023/08/21 11:46:51;;;;;;;;;;;;;;;31.46;41.27;101247.03;5104417;28;19911;-85
2023/08/21 11:49:18;;;;;;;;;;;;;;;31.46;41.40;101236.22;5094696;28;19912;-85
2023/08/21 11:51:45;;;;;;;;;;;;;;;31.36;41.63;101240.91;5096673;28;19967;-85
2023/08/21 11:54:14;;;;;;;;;;;;;;;31.47;41.31;101249.66;5115334;27;19912;-86
2023/08/21 11:56:42;;;;;;;;;;;;;;;31.46;41.64;101252.41;5104167;28;19919;-86
2023/08/21 11:59:09;;;;;;;;;;;;;;;31.44;41.81;101250.63;5094221;28;19916;-86
2023/08/21 12:01:34;;;;;;;;;;;;;;;31.44;41.60;101245.22;5112955;27;19912;-85
2023/08/21 12:04:00;;;;;;;;;;;;;;;31.47;41.55;101246.97;5092371;28;19923;-86
2023/08/21 12:06:27;;;;;;;;;;;;;;;31.56;41.50;101243.13;5096528;28;19911;-85
2023/08/21 12:08:52;;;;;;;;;;;;;;;31.54;41.42;101248.59;5098609;28;20381;-85
2023/08/21 12:11:18;;;;;;;;;;;;;;;31.59;41.26;101243.94;5103613;27;19965;-85
2023/08/21 12:13:44;;;;;;;;;;;;;;;31.61;41.42;101244.78;5096890;28;19911;-85
2023/08/21 12:16:10;;;;;;;;;;;;;;;31.63;41.59;101251.03;5118389;27;20408;-86
2023/08/21 12:18:36;;;;;;;;;;;;;;;31.60;41.65;101244.84;5093956;28;19959;-86
2023/08/21 12:21:02;;;;;;;;;;;;;;;31.69;41.20;101241.91;5090962;28;19989;-87
2023/08/21 12:23:28;;;;;;;;;;;;;;;31.52;41.51;101228.84;5094209;28;19920;-85
2023/08/21 12:25:54;;;;;;;;;;;;;;;31.68;41.55;101247.34;5094271;28;20370;-86
2023/08/21 12:28:21;;;;;;;;;;;;;;;31.68;41.30;101250.91;5097798;28;20007;-85
2023/08/21 12:30:49;;;;;;;;;;;;;;;31.87;40.89;101245.91;5097225;28;19923;-85
2023/08/21 12:33:45;;;;;;;;;;;;;;;31.83;40.94;101250.50;5091675;28;19912;-86
2023/08/21 12:36:20;;;;;;;;;;;;;;;31.82;40.94;101248.75;5092294;28;20357;-88
2023/08/21 12:38:45;;;;;;;;;;;;;;;31.70;41.34;101245.50;5093423;28;19931;-87
2023/08/21 12:41:11;;;;;;;;;;;;;;;31.76;41.24;101239.94;5103708;28;19916;-86